sensor_id;sensor_type;location;lat;lon;timestamp;temperature;humidity
7016;DHT22;3548;48.402;9.990;2023-10-31T00:01:21;10.90;99.90
7016;DHT22;3548;48.402;9.990;2023-10-31T00:03:47;10.90;99.90
7016;DHT22;3548;48.402;9.990;2023-10-31T00:06:13;10.90;99.90
7016;DHT22;3548;48.402;9.990;2023-10-31T00:08:39;10.90;99.90
7016;DHT22;3548;48.402;9.990;2023-10-31T00:11:04;10.90;99.90
7016;DHT22;3548;48.402;9.990;2023-10-31T00:13:30;10.80;99.90
7016;DHT22;3548;48.402;9.990;2023-10-31T00:15:55;10.80;99.90
7016;DHT22;3548;48.402;9.990;2023-10-31T00:18:21;10.80;99.90
7016;DHT22;3548;48.402;9.990;2023-10-31T00:20:47;10.80;99.90
7016;DHT22;3548;48.402;9.990;2023-10-31T00:23:13;10.80;99.90
7016;DHT22;3548;48.402;9.990;2023-10-31T00:25:39;10.80;99.90
7016;DHT22;3548;48.402;9.990;2023-10-31T00:28:04;10.70;99.90
7016;DHT22;3548;48.402;9.990;2023-10-31T00:30:30;10.70;99.90
7016;DHT22;3548;48.402;9.990;2023-10-31T00:32:55;10.70;99.90
7016;DHT22;3548;48.402;9.990;2023-10-31T00:35:21;10.70;99.90
7016;DHT22;3548;48.402;9.990;2023-10-31T00:37:46;10.60;99.90
7016;DHT22;3548;48.402;9.990;2023-10-31T00:40:12;10.60;99.90
7016;DHT22;3548;48.402;9.990;2023-10-31T00:42:38;10.70;99.90
7016;DHT22;3548;48.402;9.990;2023-10-31T00:45:06;10.60;99.90
7016;DHT22;3548;48.402;9.990;2023-10-31T00:47:32;10.60;99.90
7016;DHT22;3548;48.402;9.990;2023-10-31T00:49:58;10.60;99.90
7016;DHT22;3548;48.402;9.990;2023-10-31T00:52:23;10.60;99.90
7016;DHT22;3548;48.402;9.990;2023-10-31T00:54:49;10.60;99.90
7016;DHT22;3548;48.402;9.990;2023-10-31T00:57:14;10.60;99.90
7016;DHT22;3548;48.402;9.990;2023-10-31T00:59:40;10.60;99.90
7016;DHT22;3548;48.402;9.990;2023-10-31T01:02:06;10.60;99.90
7016;DHT22;3548;48.402;9.990;2023-10-31T01:04:31;10.60;99.90
7016;DHT22;3548;48.402;9.990;2023-10-31T01:06:57;10.70;99.90
7016;DHT22;3548;48.402;9.990;2023-10-31T01:09:22;10.60;99.90
7016;DHT22;3548;48.402;9.990;2023-10-31T01:11:48;10.60;99.90
7016;DHT22;3548;48.402;9.990;2023-10-31T01:14:13;10.60;99.90
7016;DHT22;3548;48.402;9.990;2023-10-31T01:16:40;10.60;99.90
7016;DHT22;3548;48.402;9.990;2023-10-31T01:19:06;10.60;99.90
7016;DHT22;3548;48.402;9.990;2023-10-31T01:21:31;10.60;99.90
7016;DHT22;3548;48.402;9.990;2023-10-31T01:23:58;10.60;99.90
7016;DHT22;3548;48.402;9.990;2023-10-31T01:26:24;10.60;99.90
7016;DHT22;3548;48.402;9.990;2023-10-31T01:28:49;10.60;99.90
7016;DHT22;3548;48.402;9.990;2023-10-31T01:31:15;10.60;99.90
7016;DHT22;3548;48.402;9.990;2023-10-31T01:33:41;10.60;99.90
7016;DHT22;3548;48.402;9.990;2023-10-31T01:36:07;10.60;99.90
7016;DHT22;3548;48.402;9.990;2023-10-31T01:38:33;10.50;99.90
7016;DHT22;3548;48.402;9.990;2023-10-31T01:40:58;10.50;99.90
7016;DHT22;3548;48.402;9.990;2023-10-31T01:43:34;10.60;99.90
7016;DHT22;3548;48.402;9.990;2023-10-31T01:46:00;10.60;99.90
7016;DHT22;3548;48.402;9.990;2023-10-31T01:48:28;10.50;99.90
7016;DHT22;3548;48.402;9.990;2023-10-31T01:50:54;10.60;99.90
7016;DHT22;3548;48.402;9.990;2023-10-31T01:53:21;10.60;99.90
7016;DHT22;3548;48.402;9.990;2023-10-31T01:55:47;10.60;99.90
7016;DHT22;3548;48.402;9.990;2023-10-31T01:58:14;10.60;99.90
7016;DHT22;3548;48.402;9.990;2023-10-31T02:00:40;10.60;99.90
7016;DHT22;3548;48.402;9.990;2023-10-31T02:03:09;10.60;99.90
7016;DHT22;3548;48.402;9.990;2023-10-31T02:05:34;10.60;99.90
7016;DHT22;3548;48.402;9.990;2023-10-31T02:08:04;10.60;99.90
7016;DHT22;3548;48.402;9.990;2023-10-31T02:10:30;10.60;99.90
7016;DHT22;3548;48.402;9.990;2023-10-31T02:12:56;10.60;99.90
7016;DHT22;3548;48.402;9.990;2023-10-31T02:15:21;10.60;99.90
7016;DHT22;3548;48.402;9.990;2023-10-31T02:17:47;10.70;99.90
7016;DHT22;3548;48.402;9.990;2023-10-31T02:20:12;10.70;99.90
7016;DHT22;3548;48.402;9.990;2023-10-31T02:22:38;10.70;99.90
7016;DHT22;3548;48.402;9.990;2023-10-31T02:25:15;10.60;99.90
7016;DHT22;3548;48.402;9.990;2023-10-31T02:27:41;10.60;99.90
7016;DHT22;3548;48.402;9.990;2023-10-31T02:30:08;10.70;99.90
7016;DHT22;3548;48.402;9.990;2023-10-31T02:32:34;10.70;99.90
7016;DHT22;3548;48.402;9.990;2023-10-31T02:34:59;10.60;99.90
7016;DHT22;3548;48.402;9.990;2023-10-31T02:37:25;10.60;99.90
7016;DHT22;3548;48.402;9.990;2023-10-31T02:39:50;10.60;99.90
7016;DHT22;3548;48.402;9.990;2023-10-31T02:42:16;10.70;99.90
7016;DHT22;3548;48.402;9.990;2023-10-31T02:44:41;10.70;99.90
7016;DHT22;3548;48.402;9.990;2023-10-31T02:47:07;10.70;99.90
7016;DHT22;3548;48.402;9.990;2023-10-31T02:49:32;10.70;99.90
7016;DHT22;3548;48.402;9.990;2023-10-31T02:51:58;10.70;99.90
7016;DHT22;3548;48.402;9.990;2023-10-31T02:54:23;10.70;99.90
7016;DHT22;3548;48.402;9.990;2023-10-31T02:56:49;10.60;99.90
7016;DHT22;3548;48.402;9.990;2023-10-31T02:59:14;10.70;99.90
7016;DHT22;3548;48.402;9.990;2023-10-31T03:01:40;10.60;99.90
7016;DHT22;3548;48.402;9.990;2023-10-31T03:04:05;10.60;99.90
7016;DHT22;3548;48.402;9.990;2023-10-31T03:06:31;10.60;99.90
7016;DHT22;3548;48.402;9.990;2023-10-31T03:08:56;10.60;99.90
7016;DHT22;3548;48.402;9.990;2023-10-31T03:11:23;10.60;99.90
7016;DHT22;3548;48.402;9.990;2023-10-31T03:13:50;10.50;99.90
7016;DHT22;3548;48.402;9.990;2023-10-31T03:16:15;10.50;99.90
7016;DHT22;3548;48.402;9.990;2023-10-31T03:18:41;10.60;99.90
7016;DHT22;3548;48.402;9.990;2023-10-31T03:21:07;10.50;99.90
7016;DHT22;3548;48.402;9.990;2023-10-31T03:23:33;10.50;99.90
7016;DHT22;3548;48.402;9.990;2023-10-31T03:25:58;10.50;99.90
7016;DHT22;3548;48.402;9.990;2023-10-31T03:28:24;10.50;99.90
7016;DHT22;3548;48.402;9.990;2023-10-31T03:30:50;10.40;99.90
7016;DHT22;3548;48.402;9.990;2023-10-31T03:33:16;10.40;99.90
7016;DHT22;3548;48.402;9.990;2023-10-31T03:35:43;10.40;99.90
7016;DHT22;3548;48.402;9.990;2023-10-31T03:38:09;10.40;99.90
7016;DHT22;3548;48.402;9.990;2023-10-31T03:40:34;10.40;99.90
7016;DHT22;3548;48.402;9.990;2023-10-31T03:43:00;10.40;99.90
7016;DHT22;3548;48.402;9.990;2023-10-31T03:45:25;10.40;99.90
7016;DHT22;3548;48.402;9.990;2023-10-31T03:47:51;10.40;99.90
7016;DHT22;3548;48.402;9.990;2023-10-31T03:50:16;10.40;99.90
7016;DHT22;3548;48.402;9.990;2023-10-31T03:52:42;10.40;99.90
7016;DHT22;3548;48.402;9.990;2023-10-31T03:55:08;10.40;99.90
7016;DHT22;3548;48.402;9.990;2023-10-31T03:57:34;10.40;99.90
7016;DHT22;3548;48.402;9.990;2023-10-31T04:00:00;10.40;99.90
7016;DHT22;3548;48.402;9.990;2023-10-31T04:02:25;10.40;99.90
7016;DHT22;3548;48.402;9.990;2023-10-31T04:04:51;10.40;99.90
7016;DHT22;3548;48.402;9.990;2023-10-31T04:07:16;10.40;99.90
7016;DHT22;3548;48.402;9.990;2023-10-31T04:09:42;10.40;99.90
7016;DHT22;3548;48.402;9.990;2023-10-31T04:12:08;10.30;99.90
7016;DHT22;3548;48.402;9.990;2023-10-31T04:14:34;10.30;99.90
7016;DHT22;3548;48.402;9.990;2023-10-31T04:17:00;10.30;99.90
7016;DHT22;3548;48.402;9.990;2023-10-31T04:19:25;10.30;99.90
7016;DHT22;3548;48.402;9.990;2023-10-31T04:21:53;10.30;99.90
7016;DHT22;3548;48.402;9.990;2023-10-31T04:24:19;10.20;99.90
7016;DHT22;3548;48.402;9.990;2023-10-31T04:26:44;10.30;99.90
7016;DHT22;3548;48.402;9.990;2023-10-31T04:29:10;10.30;99.90
7016;DHT22;3548;48.402;9.990;2023-10-31T04:31:35;10.20;99.90
7016;DHT22;3548;48.402;9.990;2023-10-31T04:34:01;10.30;99.90
7016;DHT22;3548;48.402;9.990;2023-10-31T04:36:26;10.30;99.90
7016;DHT22;3548;48.402;9.990;2023-10-31T04:38:52;10.20;99.90
7016;DHT22;3548;48.402;9.990;2023-10-31T04:41:17;10.20;99.90
7016;DHT22;3548;48.402;9.990;2023-10-31T04:43:43;10.20;99.90
7016;DHT22;3548;48.402;9.990;2023-10-31T04:46:08;10.10;99.90
7016;DHT22;3548;48.402;9.990;2023-10-31T04:48:34;10.10;99.90
7016;DHT22;3548;48.402;9.990;2023-10-31T04:51:00;10.10;99.90
7016;DHT22;3548;48.402;9.990;2023-10-31T04:53:25;10.10;99.90
7016;DHT22;3548;48.402;9.990;2023-10-31T04:55:51;10.00;99.90
7016;DHT22;3548;48.402;9.990;2023-10-31T04:58:16;10.00;99.90
7016;DHT22;3548;48.402;9.990;2023-10-31T05:00:42;10.00;99.90
7016;DHT22;3548;48.402;9.990;2023-10-31T05:03:07;10.00;99.90
7016;DHT22;3548;48.402;9.990;2023-10-31T05:05:33;10.00;99.90
7016;DHT22;3548;48.402;9.990;2023-10-31T05:07:58;9.90;99.90
7016;DHT22;3548;48.402;9.990;2023-10-31T05:10:24;9.90;99.90
7016;DHT22;3548;48.402;9.990;2023-10-31T05:12:50;9.90;99.90
7016;DHT22;3548;48.402;9.990;2023-10-31T05:15:16;9.80;99.90
7016;DHT22;3548;48.402;9.990;2023-10-31T05:17:41;9.80;99.90
7016;DHT22;3548;48.402;9.990;2023-10-31T05:20:08;9.80;99.90
7016;DHT22;3548;48.402;9.990;2023-10-31T05:22:35;9.80;99.90
7016;DHT22;3548;48.402;9.990;2023-10-31T05:25:00;9.80;99.90
7016;DHT22;3548;48.402;9.990;2023-10-31T05:27:26;9.80;99.90
7016;DHT22;3548;48.402;9.990;2023-10-31T05:29:51;9.80;99.90
7016;DHT22;3548;48.402;9.990;2023-10-31T05:32:17;9.70;99.90
7016;DHT22;3548;48.402;9.990;2023-10-31T05:34:42;9.80;99.90
7016;DHT22;3548;48.402;9.990;2023-10-31T05:37:08;9.80;99.90
7016;DHT22;3548;48.402;9.990;2023-10-31T05:39:33;9.80;99.90
7016;DHT22;3548;48.402;9.990;2023-10-31T05:41:59;9.80;99.90
7016;DHT22;3548;48.402;9.990;2023-10-31T05:44:24;9.80;99.90
7016;DHT22;3548;48.402;9.990;2023-10-31T05:46:50;9.80;99.90
7016;DHT22;3548;48.402;9.990;2023-10-31T05:49:15;9.80;99.90
7016;DHT22;3548;48.402;9.990;2023-10-31T05:51:41;9.80;99.90
7016;DHT22;3548;48.402;9.990;2023-10-31T05:54:07;9.80;99.90
7016;DHT22;3548;48.402;9.990;2023-10-31T05:56:33;9.70;99.90
7016;DHT22;3548;48.402;9.990;2023-10-31T05:58:59;9.70;99.90
7016;DHT22;3548;48.402;9.990;2023-10-31T06:01:24;9.70;99.90
7016;DHT22;3548;48.402;9.990;2023-10-31T06:03:50;9.70;99.90
7016;DHT22;3548;48.402;9.990;2023-10-31T06:06:15;9.60;99.90
7016;DHT22;3548;48.402;9.990;2023-10-31T06:08:41;9.60;99.90
7016;DHT22;3548;48.402;9.990;2023-10-31T06:11:07;9.60;99.90
7016;DHT22;3548;48.402;9.990;2023-10-31T06:13:33;9.60;99.90
7016;DHT22;3548;48.402;9.990;2023-10-31T06:16:00;9.60;99.90
7016;DHT22;3548;48.402;9.990;2023-10-31T06:18:26;9.60;99.90
7016;DHT22;3548;48.402;9.990;2023-10-31T06:20:52;9.60;99.90
7016;DHT22;3548;48.402;9.990;2023-10-31T06:23:18;9.60;99.90
7016;DHT22;3548;48.402;9.990;2023-10-31T06:25:43;9.60;99.90
7016;DHT22;3548;48.402;9.990;2023-10-31T06:28:09;9.60;99.90
7016;DHT22;3548;48.402;9.990;2023-10-31T06:30:35;9.60;99.90
7016;DHT22;3548;48.402;9.990;2023-10-31T06:33:00;9.70;99.90
7016;DHT22;3548;48.402;9.990;2023-10-31T06:35:26;9.70;99.90
7016;DHT22;3548;48.402;9.990;2023-10-31T06:37:53;9.70;99.90
7016;DHT22;3548;48.402;9.990;2023-10-31T06:40:19;9.70;99.90
7016;DHT22;3548;48.402;9.990;2023-10-31T06:42:45;9.70;99.90
7016;DHT22;3548;48.402;9.990;2023-10-31T06:45:10;9.70;99.90
7016;DHT22;3548;48.402;9.990;2023-10-31T06:47:36;9.70;99.90
7016;DHT22;3548;48.402;9.990;2023-10-31T06:50:01;9.70;99.90
7016;DHT22;3548;48.402;9.990;2023-10-31T06:52:28;9.70;99.90
7016;DHT22;3548;48.402;9.990;2023-10-31T06:54:53;9.70;99.90
7016;DHT22;3548;48.402;9.990;2023-10-31T06:57:19;9.70;99.90
7016;DHT22;3548;48.402;9.990;2023-10-31T06:59:44;9.70;99.90
7016;DHT22;3548;48.402;9.990;2023-10-31T07:02:11;9.70;99.90
7016;DHT22;3548;48.402;9.990;2023-10-31T07:04:37;9.70;99.90
7016;DHT22;3548;48.402;9.990;2023-10-31T07:07:02;9.70;99.90
7016;DHT22;3548;48.402;9.990;2023-10-31T07:09:28;9.60;99.90
7016;DHT22;3548;48.402;9.990;2023-10-31T07:11:54;9.60;99.90
7016;DHT22;3548;48.402;9.990;2023-10-31T07:14:20;9.60;99.90
7016;DHT22;3548;48.402;9.990;2023-10-31T07:16:45;9.60;99.90
7016;DHT22;3548;48.402;9.990;2023-10-31T07:19:11;9.60;99.90
7016;DHT22;3548;48.402;9.990;2023-10-31T07:21:37;9.60;99.90
7016;DHT22;3548;48.402;9.990;2023-10-31T07:24:02;9.60;99.90
7016;DHT22;3548;48.402;9.990;2023-10-31T07:26:28;9.70;99.90
7016;DHT22;3548;48.402;9.990;2023-10-31T07:28:53;9.60;99.90
7016;DHT22;3548;48.402;9.990;2023-10-31T07:31:19;9.70;99.90
7016;DHT22;3548;48.402;9.990;2023-10-31T07:33:45;9.70;99.90
7016;DHT22;3548;48.402;9.990;2023-10-31T07:36:11;9.70;99.90
7016;DHT22;3548;48.402;9.990;2023-10-31T07:38:37;9.70;99.90
7016;DHT22;3548;48.402;9.990;2023-10-31T07:41:02;9.70;99.90
7016;DHT22;3548;48.402;9.990;2023-10-31T07:43:28;9.70;99.90
7016;DHT22;3548;48.402;9.990;2023-10-31T07:45:54;9.70;99.90
7016;DHT22;3548;48.402;9.990;2023-10-31T07:48:20;9.70;99.90
7016;DHT22;3548;48.402;9.990;2023-10-31T07:50:45;9.70;99.90
7016;DHT22;3548;48.402;9.990;2023-10-31T07:53:11;9.70;99.90
7016;DHT22;3548;48.402;9.990;2023-10-31T07:55:36;9.70;99.90
7016;DHT22;3548;48.402;9.990;2023-10-31T07:58:02;9.70;99.90
7016;DHT22;3548;48.402;9.990;2023-10-31T08:00:27;9.70;99.90
7016;DHT22;3548;48.402;9.990;2023-10-31T08:02:53;9.80;99.90
7016;DHT22;3548;48.402;9.990;2023-10-31T08:05:18;9.90;99.90
7016;DHT22;3548;48.402;9.990;2023-10-31T08:07:44;9.90;99.90
7016;DHT22;3548;48.402;9.990;2023-10-31T08:10:10;10.00;99.90
7016;DHT22;3548;48.402;9.990;2023-10-31T08:12:35;10.00;99.90
7016;DHT22;3548;48.402;9.990;2023-10-31T08:15:02;10.00;99.90
7016;DHT22;3548;48.402;9.990;2023-10-31T08:17:28;10.10;99.90
7016;DHT22;3548;48.402;9.990;2023-10-31T08:19:53;10.00;99.90
7016;DHT22;3548;48.402;9.990;2023-10-31T08:22:20;10.00;99.90
7016;DHT22;3548;48.402;9.990;2023-10-31T08:24:45;10.00;99.90
7016;DHT22;3548;48.402;9.990;2023-10-31T08:27:11;10.00;99.90
7016;DHT22;3548;48.402;9.990;2023-10-31T08:29:38;10.00;99.90
7016;DHT22;3548;48.402;9.990;2023-10-31T08:32:03;10.00;99.90
7016;DHT22;3548;48.402;9.990;2023-10-31T08:34:29;10.00;99.90
7016;DHT22;3548;48.402;9.990;2023-10-31T08:36:55;10.10;99.90
7016;DHT22;3548;48.402;9.990;2023-10-31T08:39:22;10.10;99.90
7016;DHT22;3548;48.402;9.990;2023-10-31T08:41:52;10.10;99.90
7016;DHT22;3548;48.402;9.990;2023-10-31T08:44:18;10.10;99.90
7016;DHT22;3548;48.402;9.990;2023-10-31T08:46:43;10.10;99.90
7016;DHT22;3548;48.402;9.990;2023-10-31T08:49:09;10.10;99.90
7016;DHT22;3548;48.402;9.990;2023-10-31T08:51:34;10.20;99.90
7016;DHT22;3548;48.402;9.990;2023-10-31T08:54:00;10.20;99.90
7016;DHT22;3548;48.402;9.990;2023-10-31T08:56:25;10.20;99.90
7016;DHT22;3548;48.402;9.990;2023-10-31T08:58:53;10.30;99.90
7016;DHT22;3548;48.402;9.990;2023-10-31T09:01:19;10.30;99.90
7016;DHT22;3548;48.402;9.990;2023-10-31T09:03:44;10.30;99.90
7016;DHT22;3548;48.402;9.990;2023-10-31T09:06:10;10.40;99.90
7016;DHT22;3548;48.402;9.990;2023-10-31T09:08:36;10.40;99.90
7016;DHT22;3548;48.402;9.990;2023-10-31T09:11:04;10.50;99.90
7016;DHT22;3548;48.402;9.990;2023-10-31T09:13:31;10.50;99.90
7016;DHT22;3548;48.402;9.990;2023-10-31T09:16:00;10.50;99.90
7016;DHT22;3548;48.402;9.990;2023-10-31T09:18:26;10.60;99.90
7016;DHT22;3548;48.402;9.990;2023-10-31T09:20:52;10.70;99.90
7016;DHT22;3548;48.402;9.990;2023-10-31T09:23:17;10.60;99.90
7016;DHT22;3548;48.402;9.990;2023-10-31T09:25:44;10.70;99.90
7016;DHT22;3548;48.402;9.990;2023-10-31T09:28:09;10.70;99.90
7016;DHT22;3548;48.402;9.990;2023-10-31T09:30:35;10.70;99.90
7016;DHT22;3548;48.402;9.990;2023-10-31T09:33:01;10.80;99.90
7016;DHT22;3548;48.402;9.990;2023-10-31T09:35:26;10.80;99.90
7016;DHT22;3548;48.402;9.990;2023-10-31T09:37:52;10.80;99.90
7016;DHT22;3548;48.402;9.990;2023-10-31T09:40:18;10.90;99.90
7016;DHT22;3548;48.402;9.990;2023-10-31T09:42:45;11.00;99.90
7016;DHT22;3548;48.402;9.990;2023-10-31T09:45:11;11.00;99.90
7016;DHT22;3548;48.402;9.990;2023-10-31T09:47:37;11.10;99.90
7016;DHT22;3548;48.402;9.990;2023-10-31T09:50:03;11.20;99.90
7016;DHT22;3548;48.402;9.990;2023-10-31T09:52:29;11.20;99.90
7016;DHT22;3548;48.402;9.990;2023-10-31T09:54:55;11.30;99.90
7016;DHT22;3548;48.402;9.990;2023-10-31T09:57:21;11.30;99.90
7016;DHT22;3548;48.402;9.990;2023-10-31T09:59:47;11.30;99.90
7016;DHT22;3548;48.402;9.990;2023-10-31T10:02:13;11.30;99.90
7016;DHT22;3548;48.402;9.990;2023-10-31T10:04:38;11.30;99.90
7016;DHT22;3548;48.402;9.990;2023-10-31T10:07:05;11.40;99.90
7016;DHT22;3548;48.402;9.990;2023-10-31T10:09:31;11.50;99.90
7016;DHT22;3548;48.402;9.990;2023-10-31T10:11:59;11.60;99.90
7016;DHT22;3548;48.402;9.990;2023-10-31T10:14:26;11.60;99.90
7016;DHT22;3548;48.402;9.990;2023-10-31T10:16:57;11.70;99.90
7016;DHT22;3548;48.402;9.990;2023-10-31T10:19:23;11.80;99.90
7016;DHT22;3548;48.402;9.990;2023-10-31T10:21:56;11.90;99.90
7016;DHT22;3548;48.402;9.990;2023-10-31T10:24:22;11.90;99.90
7016;DHT22;3548;48.402;9.990;2023-10-31T10:26:48;11.90;99.90
7016;DHT22;3548;48.402;9.990;2023-10-31T10:29:15;12.10;99.90
7016;DHT22;3548;48.402;9.990;2023-10-31T10:31:41;12.30;99.90
7016;DHT22;3548;48.402;9.990;2023-10-31T10:34:08;12.40;99.90
7016;DHT22;3548;48.402;9.990;2023-10-31T10:36:34;12.50;99.90
7016;DHT22;3548;48.402;9.990;2023-10-31T10:39:00;12.50;99.90
7016;DHT22;3548;48.402;9.990;2023-10-31T10:41:27;12.50;99.90
7016;DHT22;3548;48.402;9.990;2023-10-31T10:43:57;12.60;99.90
7016;DHT22;3548;48.402;9.990;2023-10-31T10:46:29;12.60;99.90
7016;DHT22;3548;48.402;9.990;2023-10-31T10:48:59;12.50;99.90
7016;DHT22;3548;48.402;9.990;2023-10-31T10:51:29;12.60;99.90
7016;DHT22;3548;48.402;9.990;2023-10-31T10:54:08;12.70;99.90
7016;DHT22;3548;48.402;9.990;2023-10-31T10:56:38;12.60;99.90
7016;DHT22;3548;48.402;9.990;2023-10-31T10:59:14;12.70;99.90
7016;DHT22;3548;48.402;9.990;2023-10-31T11:01:46;12.50;99.90
7016;DHT22;3548;48.402;9.990;2023-10-31T11:04:13;12.40;99.90
7016;DHT22;3548;48.402;9.990;2023-10-31T11:06:39;12.30;99.90
7016;DHT22;3548;48.402;9.990;2023-10-31T11:09:05;12.40;99.90
7016;DHT22;3548;48.402;9.990;2023-10-31T11:11:32;12.40;99.90
7016;DHT22;3548;48.402;9.990;2023-10-31T11:13:58;12.50;99.90
7016;DHT22;3548;48.402;9.990;2023-10-31T11:16:31;12.40;99.90
7016;DHT22;3548;48.402;9.990;2023-10-31T11:18:59;12.40;99.90
7016;DHT22;3548;48.402;9.990;2023-10-31T11:21:28;12.40;99.90
7016;DHT22;3548;48.402;9.990;2023-10-31T11:23:58;12.40;99.90
7016;DHT22;3548;48.402;9.990;2023-10-31T11:26:29;12.30;99.90
7016;DHT22;3548;48.402;9.990;2023-10-31T11:29:07;12.40;99.90
7016;DHT22;3548;48.402;9.990;2023-10-31T11:31:37;12.40;99.90
7016;DHT22;3548;48.402;9.990;2023-10-31T11:34:03;12.30;99.90
7016;DHT22;3548;48.402;9.990;2023-10-31T11:36:32;12.20;99.90
7016;DHT22;3548;48.402;9.990;2023-10-31T11:39:11;12.20;99.90
7016;DHT22;3548;48.402;9.990;2023-10-31T11:41:38;12.10;99.90
7016;DHT22;3548;48.402;9.990;2023-10-31T11:44:04;12.10;99.90
7016;DHT22;3548;48.402;9.990;2023-10-31T11:46:29;12.10;99.90
7016;DHT22;3548;48.402;9.990;2023-10-31T11:48:56;12.10;99.90
7016;DHT22;3548;48.402;9.990;2023-10-31T11:51:22;12.20;99.90
7016;DHT22;3548;48.402;9.990;2023-10-31T11:53:50;12.20;99.90
7016;DHT22;3548;48.402;9.990;2023-10-31T11:56:16;12.30;99.90
7016;DHT22;3548;48.402;9.990;2023-10-31T11:58:42;12.40;99.90
7016;DHT22;3548;48.402;9.990;2023-10-31T12:01:08;12.40;99.90
7016;DHT22;3548;48.402;9.990;2023-10-31T12:03:42;12.50;99.90
7016;DHT22;3548;48.402;9.990;2023-10-31T12:06:12;12.60;99.90
7016;DHT22;3548;48.402;9.990;2023-10-31T12:08:43;12.70;99.90
7016;DHT22;3548;48.402;9.990;2023-10-31T12:13:36;12.80;99.90
7016;DHT22;3548;48.402;9.990;2023-10-31T12:16:03;12.80;99.90
7016;DHT22;3548;48.402;9.990;2023-10-31T12:18:29;12.80;99.90
7016;DHT22;3548;48.402;9.990;2023-10-31T12:20:55;12.70;99.90
7016;DHT22;3548;48.402;9.990;2023-10-31T12:23:21;12.70;99.90
7016;DHT22;3548;48.402;9.990;2023-10-31T12:25:47;12.60;99.90
7016;DHT22;3548;48.402;9.990;2023-10-31T12:28:26;12.60;99.90
7016;DHT22;3548;48.402;9.990;2023-10-31T12:30:54;12.60;99.90
7016;DHT22;3548;48.402;9.990;2023-10-31T12:33:21;12.50;99.90
7016;DHT22;3548;48.402;9.990;2023-10-31T12:35:48;12.50;99.90
7016;DHT22;3548;48.402;9.990;2023-10-31T12:38:14;12.40;99.90
7016;DHT22;3548;48.402;9.990;2023-10-31T12:40:41;12.30;99.90
7016;DHT22;3548;48.402;9.990;2023-10-31T12:43:08;12.20;99.90
7016;DHT22;3548;48.402;9.990;2023-10-31T12:45:34;12.10;99.90
7016;DHT22;3548;48.402;9.990;2023-10-31T12:48:04;12.10;99.90
7016;DHT22;3548;48.402;9.990;2023-10-31T12:50:30;12.10;99.90
7016;DHT22;3548;48.402;9.990;2023-10-31T12:52:57;12.00;99.90
7016;DHT22;3548;48.402;9.990;2023-10-31T12:55:24;12.00;99.90
7016;DHT22;3548;48.402;9.990;2023-10-31T12:57:51;11.90;99.90
7016;DHT22;3548;48.402;9.990;2023-10-31T13:00:18;11.90;99.90
7016;DHT22;3548;48.402;9.990;2023-10-31T13:02:49;11.90;99.90
7016;DHT22;3548;48.402;9.990;2023-10-31T13:05:15;11.80;99.90
7016;DHT22;3548;48.402;9.990;2023-10-31T13:07:51;11.80;99.90
7016;DHT22;3548;48.402;9.990;2023-10-31T13:10:18;11.80;99.90
7016;DHT22;3548;48.402;9.990;2023-10-31T13:12:45;11.90;99.90
7016;DHT22;3548;48.402;9.990;2023-10-31T13:15:15;12.00;99.90
7016;DHT22;3548;48.402;9.990;2023-10-31T13:17:42;12.20;99.90
7016;DHT22;3548;48.402;9.990;2023-10-31T13:20:13;12.30;99.90
7016;DHT22;3548;48.402;9.990;2023-10-31T13:22:39;12.50;99.90
7016;DHT22;3548;48.402;9.990;2023-10-31T13:25:06;12.60;99.90
7016;DHT22;3548;48.402;9.990;2023-10-31T13:27:33;12.70;99.90
7016;DHT22;3548;48.402;9.990;2023-10-31T13:30:01;12.80;99.90
7016;DHT22;3548;48.402;9.990;2023-10-31T13:32:27;12.70;99.90
7016;DHT22;3548;48.402;9.990;2023-10-31T13:34:52;12.70;99.90
7016;DHT22;3548;48.402;9.990;2023-10-31T13:37:18;12.70;99.90
7016;DHT22;3548;48.402;9.990;2023-10-31T13:39:43;12.70;99.90
7016;DHT22;3548;48.402;9.990;2023-10-31T13:42:09;12.60;99.90
7016;DHT22;3548;48.402;9.990;2023-10-31T13:44:36;12.70;99.90
7016;DHT22;3548;48.402;9.990;2023-10-31T13:47:02;12.70;99.90
7016;DHT22;3548;48.402;9.990;2023-10-31T13:49:28;12.80;99.90
7016;DHT22;3548;48.402;9.990;2023-10-31T13:51:54;12.90;99.90
7016;DHT22;3548;48.402;9.990;2023-10-31T13:54:19;13.00;99.90
7016;DHT22;3548;48.402;9.990;2023-10-31T13:56:46;13.00;99.90
7016;DHT22;3548;48.402;9.990;2023-10-31T13:59:12;13.00;99.90
7016;DHT22;3548;48.402;9.990;2023-10-31T14:01:38;12.90;99.90
7016;DHT22;3548;48.402;9.990;2023-10-31T14:04:03;12.90;99.90
7016;DHT22;3548;48.402;9.990;2023-10-31T14:06:29;12.80;99.90
7016;DHT22;3548;48.402;9.990;2023-10-31T14:08:56;12.70;99.90
7016;DHT22;3548;48.402;9.990;2023-10-31T14:11:21;12.60;99.90
7016;DHT22;3548;48.402;9.990;2023-10-31T14:13:47;12.50;99.90
7016;DHT22;3548;48.402;9.990;2023-10-31T14:16:13;12.40;99.90
7016;DHT22;3548;48.402;9.990;2023-10-31T14:18:39;12.30;99.90
7016;DHT22;3548;48.402;9.990;2023-10-31T14:21:04;12.20;99.90
7016;DHT22;3548;48.402;9.990;2023-10-31T14:23:30;12.10;99.90
7016;DHT22;3548;48.402;9.990;2023-10-31T14:25:56;12.00;99.90
7016;DHT22;3548;48.402;9.990;2023-10-31T14:28:22;11.90;99.90
7016;DHT22;3548;48.402;9.990;2023-10-31T14:30:47;11.90;99.90
7016;DHT22;3548;48.402;9.990;2023-10-31T14:33:13;11.80;99.90
7016;DHT22;3548;48.402;9.990;2023-10-31T14:35:39;11.80;99.90
7016;DHT22;3548;48.402;9.990;2023-10-31T14:38:04;11.80;99.90
7016;DHT22;3548;48.402;9.990;2023-10-31T14:40:30;11.80;99.90
7016;DHT22;3548;48.402;9.990;2023-10-31T14:42:56;11.90;99.90
7016;DHT22;3548;48.402;9.990;2023-10-31T14:45:21;12.00;99.90
7016;DHT22;3548;48.402;9.990;2023-10-31T14:47:47;12.10;99.90
7016;DHT22;3548;48.402;9.990;2023-10-31T14:50:12;12.20;99.90
7016;DHT22;3548;48.402;9.990;2023-10-31T14:52:38;12.20;99.90
7016;DHT22;3548;48.402;9.990;2023-10-31T14:55:04;12.40;99.90
7016;DHT22;3548;48.402;9.990;2023-10-31T14:57:29;12.40;99.90
7016;DHT22;3548;48.402;9.990;2023-10-31T14:59:55;12.40;99.90
7016;DHT22;3548;48.402;9.990;2023-10-31T15:02:22;12.40;99.90
7016;DHT22;3548;48.402;9.990;2023-10-31T15:04:48;12.40;99.90
7016;DHT22;3548;48.402;9.990;2023-10-31T15:07:14;12.30;99.90
7016;DHT22;3548;48.402;9.990;2023-10-31T15:09:39;12.30;99.90
7016;DHT22;3548;48.402;9.990;2023-10-31T15:12:06;12.20;99.90
7016;DHT22;3548;48.402;9.990;2023-10-31T15:14:31;12.20;99.90
7016;DHT22;3548;48.402;9.990;2023-10-31T15:16:57;12.10;99.90
7016;DHT22;3548;48.402;9.990;2023-10-31T15:19:22;12.00;99.90
7016;DHT22;3548;48.402;9.990;2023-10-31T15:21:48;12.00;99.90
7016;DHT22;3548;48.402;9.990;2023-10-31T15:24:14;11.90;99.90
7016;DHT22;3548;48.402;9.990;2023-10-31T15:26:39;11.80;99.90
7016;DHT22;3548;48.402;9.990;2023-10-31T15:29:05;11.80;99.90
7016;DHT22;3548;48.402;9.990;2023-10-31T15:31:32;11.70;99.90
7016;DHT22;3548;48.402;9.990;2023-10-31T15:33:57;11.60;99.90
7016;DHT22;3548;48.402;9.990;2023-10-31T15:36:23;11.60;99.90
7016;DHT22;3548;48.402;9.990;2023-10-31T15:38:49;11.60;99.90
7016;DHT22;3548;48.402;9.990;2023-10-31T15:41:16;11.60;99.90
7016;DHT22;3548;48.402;9.990;2023-10-31T15:43:41;11.50;99.90
7016;DHT22;3548;48.402;9.990;2023-10-31T15:46:07;11.40;99.90
7016;DHT22;3548;48.402;9.990;2023-10-31T15:48:33;11.30;99.90
7016;DHT22;3548;48.402;9.990;2023-10-31T15:51:01;11.30;99.90
7016;DHT22;3548;48.402;9.990;2023-10-31T15:53:27;11.30;99.90
7016;DHT22;3548;48.402;9.990;2023-10-31T15:55:53;11.30;99.90
7016;DHT22;3548;48.402;9.990;2023-10-31T15:58:19;11.20;99.90
7016;DHT22;3548;48.402;9.990;2023-10-31T16:00:45;11.20;99.90